Time;durP1;ratioP1;P1;durP2;ratioP2;P2;SDS_P1;SDS_P2;PMS_P1;PMS_P2;Temp;Humidity;BMP_temperature;BMP_pressure;BME280_temperature;BME280_humidity;BME280_pressure;Samples;Min_cycle;Max_cycle;Signal;HPM_P1;HPM_P2
2024/01/05 00:00:18;;;;;;;5.73;3.17;;;7.30;73.90;;;9.07;55.56;96530.44;5068964;28;20047;-59
2024/01/05 00:02:46;;;;;;;7.00;2.70;;;7.30;73.60;;;9.09;55.54;96530.25;5068506;28;20044;-59
2024/01/05 00:05:14;;;;;;;6.30;2.20;;;7.30;73.30;;;9.10;55.78;96531.91;5069941;28;20052;-59
2024/01/05 00:07:41;;;;;;;6.03;2.20;;;7.40;73.00;;;9.12;55.68;96519.28;5070000;28;20048;-60
2024/01/05 00:10:09;;;;;;;5.27;2.10;;;7.40;73.00;;;9.13;55.74;96520.09;5069383;28;20488;-59
2024/01/05 00:12:37;;;;;;;5.63;2.13;;;7.40;72.50;;;9.13;55.67;96512.97;5067843;28;20053;-60
2024/01/05 00:15:06;;;;;;;6.20;2.10;;;7.50;72.70;;;9.13;55.63;96512.97;5070191;28;20492;-59
2024/01/05 00:17:34;;;;;;;8.00;1.90;;;7.40;72.30;;;9.13;55.52;96506.81;5069771;28;20044;-59
2024/01/05 00:20:02;;;;;;;4.30;2.10;;;7.40;72.70;;;9.10;55.60;96499.22;5069457;28;20052;-60
2024/01/05 00:22:30;;;;;;;4.53;2.80;;;7.40;72.60;;;9.07;55.21;96503.03;5070007;28;20522;-60
2024/01/05 00:24:58;;;;;;;5.80;2.23;;;7.30;72.80;;;9.04;55.45;96498.13;5069699;28;20162;-59
2024/01/05 00:27:26;;;;;;;3.50;1.60;;;7.30;72.80;;;9.02;55.58;96497.47;5070081;28;20048;-59
2024/01/05 00:29:54;;;;;;;6.17;1.80;;;7.30;72.50;;;9.03;55.42;96493.78;5069401;28;20036;-60
2024/01/05 00:32:22;;;;;;;2.97;1.83;;;7.40;72.40;;;9.02;55.44;96498.28;5069893;28;20044;-59
2024/01/05 00:34:50;;;;;;;4.63;1.73;;;7.40;72.50;;;9.01;55.41;96493.16;5070104;28;20052;-59
2024/01/05 00:37:18;;;;;;;3.60;1.77;;;7.30;71.80;;;8.98;55.50;96491.69;5068473;28;20047;-59
2024/01/05 00:39:46;;;;;;;6.50;1.63;;;7.30;72.10;;;8.99;55.50;96500.47;5069480;28;20052;-60
2024/01/05 00:42:13;;;;;;;3.93;1.43;;;7.30;72.20;;;8.98;55.40;96507.63;5069847;28;20041;-59
2024/01/05 00:44:41;;;;;;;2.80;1.80;;;7.30;72.50;;;8.97;55.07;96508.59;5070086;28;20053;-60
2024/01/05 00:47:09;;;;;;;4.47;1.70;;;7.30;72.00;;;8.93;55.16;96511.81;5069564;28;20044;-59
2024/01/05 00:49:38;;;;;;;3.83;1.83;;;7.30;72.30;;;8.91;55.17;96503.19;5069265;28;20041;-59
2024/01/05 00:52:06;;;;;;;4.70;1.93;;;7.20;72.00;;;8.91;55.13;96511.97;5061564;28;20052;-59
2024/01/05 00:54:34;;;;;;;3.53;2.50;;;7.20;72.50;;;8.92;55.55;96507.50;5067868;28;20045;-59
2024/01/05 00:57:02;;;;;;;5.10;2.27;;;7.20;72.50;;;8.95;55.34;96507.16;5069555;28;20046;-60
2024/01/05 00:59:30;;;;;;;5.70;1.90;;;7.20;72.20;;;8.94;55.14;96508.16;5069522;28;20445;-59
2024/01/05 01:01:57;;;;;;;3.90;1.70;;;7.20;72.20;;;8.90;55.29;96520.13;5069260;28;20059;-60
2024/01/05 01:04:25;;;;;;;5.73;1.87;;;7.20;72.70;;;8.92;55.53;96518.09;5069591;28;20041;-59
2024/01/05 01:06:53;;;;;;;5.57;2.10;;;7.20;73.10;;;8.94;55.49;96518.78;5069625;28;20047;-59
2024/01/05 01:09:21;;;;;;;10.53;3.50;;;7.20;73.00;;;9.00;55.60;96510.09;5069335;28;20459;-59
2024/01/05 01:11:50;;;;;;;23.30;8.83;;;7.30;73.10;;;9.05;55.23;96516.53;5071135;28;20045;-60
2024/01/05 01:14:18;;;;;;;26.93;11.87;;;7.30;72.80;;;9.04;55.15;96512.22;5071694;28;20040;-59
2024/01/05 01:16:46;;;;;;;11.27;4.67;;;7.20;73.00;;;9.04;55.04;96512.22;5073127;28;20508;-59
2024/01/05 01:19:14;;;;;;;21.53;10.00;;;7.20;73.20;;;9.04;55.13;96496.28;5069983;28;20049;-59
2024/01/05 01:21:42;;;;;;;33.33;12.53;;;7.20;73.00;;;9.07;55.38;96489.78;5073095;28;20048;-60
2024/01/05 01:24:10;;;;;;;59.87;23.07;;;7.20;73.00;;;9.09;55.40;96473.66;5064902;28;20419;-59
2024/01/05 01:26:38;;;;;;;46.07;18.30;;;7.30;72.90;;;9.10;55.36;96470.84;5072937;28;20060;-59
2024/01/05 01:29:08;;;;;;;32.97;14.43;;;7.30;73.00;;;9.12;55.45;96471.47;5071588;28;20036;-60
2024/01/05 01:31:36;;;;;;;26.10;13.10;;;7.40;72.80;;;9.14;55.31;96466.00;5072615;28;20044;-60
2024/01/05 01:34:04;;;;;;;36.83;14.00;;;7.40;72.60;;;9.13;55.35;96467.00;5072621;28;20067;-60
2024/01/05 01:36:32;;;;;;;36.60;15.30;;;7.40;72.40;;;9.09;55.18;96463.03;5071338;28;20060;-60
2024/01/05 01:39:00;;;;;;;26.27;10.63;;;7.40;72.20;;;9.05;55.45;96455.47;5072581;28;20056;-59
2024/01/05 01:41:28;;;;;;;26.00;11.13;;;7.40;72.30;;;9.03;55.21;96457.47;5072621;28;20052;-59
2024/01/05 01:43:56;;;;;;;20.77;9.10;;;7.40;72.40;;;9.02;55.41;96442.53;5071842;28;20044;-60
2024/01/05 01:46:24;;;;;;;14.30;6.53;;;7.40;72.50;;;8.97;55.37;96434.28;5055170;28;20033;-59
2024/01/05 01:48:53;;;;;;;16.23;7.80;;;7.30;72.50;;;8.94;55.35;96424.03;5071502;28;20052;-59
2024/01/05 01:51:22;;;;;;;18.50;9.60;;;7.30;72.40;;;8.93;55.52;96430.34;5070923;28;20045;-59
2024/01/05 01:53:52;;;;;;;20.87;9.97;;;7.30;72.30;;;8.91;55.36;96428.88;5072004;28;20055;-59
2024/01/05 01:56:20;;;;;;;10.37;4.90;;;7.30;72.80;;;8.90;55.64;96425.41;5070867;28;20045;-60
2024/01/05 01:58:48;;;;;;;14.63;7.77;;;7.30;73.10;;;8.91;55.50;96431.53;5070706;28;20060;-59
2024/01/05 02:01:16;;;;;;;16.53;6.83;;;7.30;73.10;;;8.90;55.65;96429.88;5072031;28;20069;-59
2024/01/05 02:03:44;;;;;;;11.63;5.07;;;7.30;72.60;;;8.87;55.33;96431.88;5072105;28;20041;-59
2024/01/05 02:06:13;;;;;;;11.73;6.23;;;7.30;73.10;;;8.90;55.75;96429.88;5064125;28;20077;-59
2024/01/05 02:08:42;;;;;;;7.93;4.80;;;7.30;73.30;;;8.85;55.66;96423.28;5072327;28;20041;-59
2024/01/05 02:11:12;;;;;;;11.50;5.40;;;7.20;73.10;;;8.87;55.50;96428.41;5070658;28;20033;-59
2024/01/05 02:13:40;;;;;;;8.00;4.33;;;7.20;73.20;;;8.87;55.58;96418.59;5070885;28;20523;-60
2024/01/05 02:16:08;;;;;;;14.30;6.60;;;7.20;73.40;;;8.87;55.62;96415.13;5070482;28;20045;-59
2024/01/05 02:18:36;;;;;;;12.50;6.07;;;7.20;73.40;;;8.85;55.39;96417.97;5072094;28;20036;-59
2024/01/05 02:21:08;;;;;;;6.77;3.33;;;7.20;73.10;;;8.82;55.36;96423.66;5071580;28;20055;-59
2024/01/05 02:23:36;;;;;;;6.87;3.77;;;7.10;73.10;;;8.82;55.36;96425.47;5071111;28;20044;-59
2024/01/05 02:26:05;;;;;;;5.57;2.03;;;7.00;73.50;;;8.77;55.30;96414.59;5071762;28;20060;-59
2024/01/05 02:28:36;;;;;;;4.80;2.47;;;7.00;73.70;;;8.76;55.41;96395.19;5054500;28;20048;-60
2024/01/05 02:31:04;;;;;;;4.37;2.00;;;7.00;73.50;;;8.77;55.58;96401.31;5071303;28;20094;-59
2024/01/05 02:33:32;;;;;;;7.57;4.87;;;7.00;73.70;;;8.74;55.58;96393.69;5071406;28;20053;-59
2024/01/05 02:36:00;;;;;;;5.10;2.87;;;6.90;73.90;;;8.71;55.62;96392.25;5071521;28;20047;-59
2024/01/05 02:38:28;;;;;;;5.03;2.50;;;6.90;73.90;;;8.72;55.46;96395.72;5070077;28;20045;-59
2024/01/05 02:40:57;;;;;;;5.00;2.37;;;6.90;73.50;;;8.70;55.39;96395.88;5071434;28;20424;-59
2024/01/05 02:43:25;;;;;;;4.30;2.03;;;6.90;74.00;;;8.69;55.41;96394.25;5071458;28;20049;-59
2024/01/05 02:45:53;;;;;;;5.40;2.00;;;6.90;74.10;;;8.66;55.53;96397.25;5071580;28;20060;-60
2024/01/05 02:48:21;;;;;;;3.20;1.80;;;6.80;74.10;;;8.66;55.12;96406.03;5071331;28;20051;-60
2024/01/05 02:50:49;;;;;;;4.03;1.53;;;6.80;74.00;;;8.65;55.46;96407.03;5071326;28;20052;-59
2024/01/05 02:53:17;;;;;;;3.53;2.00;;;6.80;73.90;;;8.67;55.25;96401.56;5071285;28;20032;-59
2024/01/05 02:55:45;;;;;;;4.00;2.20;;;6.90;73.80;;;8.63;55.47;96387.84;5071371;28;20496;-59
2024/01/05 02:58:13;;;;;;;5.63;2.70;;;6.80;73.30;;;8.63;55.50;96385.19;5069489;28;20040;-59
2024/01/05 03:00:40;;;;;;;4.17;2.10;;;6.90;73.70;;;8.63;55.29;96393.13;5070330;28;20099;-59
2024/01/05 03:03:08;;;;;;;3.37;1.50;;;6.80;73.60;;;8.64;55.56;96381.50;5070807;28;20063;-59
2024/01/05 03:05:36;;;;;;;5.47;2.07;;;6.80;73.30;;;8.66;55.27;96389.28;5070950;28;20056;-60
2024/01/05 03:08:06;;;;;;;3.77;2.20;;;6.80;73.40;;;8.69;55.18;96380.16;5071077;28;20049;-59
2024/01/05 03:10:34;;;;;;;3.60;1.90;;;6.90;73.10;;;8.70;55.30;96379.97;5070697;28;20055;-59
2024/01/05 03:13:02;;;;;;;6.93;2.87;;;7.00;72.60;;;8.73;55.35;96381.47;5070841;28;20515;-59
2024/01/05 03:15:30;;;;;;;3.37;1.40;;;7.00;72.70;;;8.73;55.29;96376.97;5070655;28;20051;-59
2024/01/05 03:17:58;;;;;;;5.30;1.70;;;7.00;72.80;;;8.77;55.36;96370.28;5069336;28;20052;-59
2024/01/05 03:20:27;;;;;;;3.37;1.40;;;7.00;72.50;;;8.77;55.15;96358.84;5070554;28;20048;-59
2024/01/05 03:22:54;;;;;;;4.00;1.37;;;7.00;72.40;;;8.80;55.13;96369.09;5069818;28;20060;-59
2024/01/05 03:25:22;;;;;;;3.90;1.20;;;7.10;72.30;;;8.80;55.14;96363.78;5070733;28;20044;-59
2024/01/05 03:27:50;;;;;;;3.17;1.77;;;7.00;72.10;;;8.78;55.08;96368.44;5070871;28;20052;-59
2024/01/05 03:30:18;;;;;;;2.77;1.67;;;7.00;72.40;;;8.77;55.41;96364.16;5068172;28;20037;-59
2024/01/05 03:32:46;;;;;;;5.13;1.60;;;7.00;72.40;;;8.77;55.01;96357.03;5070634;28;20176;-59
2024/01/05 03:35:14;;;;;;;2.80;2.00;;;7.00;72.20;;;8.81;55.04;96354.84;5070896;28;20619;-59
2024/01/05 03:37:41;;;;;;;6.07;2.37;;;7.00;72.30;;;8.81;55.17;96342.38;5070774;28;20040;-59
2024/01/05 03:40:10;;;;;;;3.57;1.40;;;7.10;72.20;;;8.86;54.85;96344.50;5070190;28;20048;-59
2024/01/05 03:42:37;;;;;;;4.60;2.20;;;7.10;71.90;;;8.83;54.98;96343.00;5070119;28;20420;-60
2024/01/05 03:45:06;;;;;;;3.33;1.50;;;7.10;72.00;;;8.85;54.86;96337.53;5070221;28;20056;-59
2024/01/05 03:47:34;;;;;;;4.63;1.60;;;7.10;71.90;;;8.83;54.86;96344.84;5070482;28;20439;-59
2024/01/05 03:50:02;;;;;;;6.77;1.97;;;7.00;71.40;;;8.83;54.69;96347.50;5069862;28;20048;-59
2024/01/05 03:52:30;;;;;;;4.13;1.40;;;7.00;71.40;;;8.83;54.85;96352.81;5069975;28;20412;-59
2024/01/05 03:54:58;;;;;;;2.50;1.40;;;7.10;71.40;;;8.84;54.59;96357.09;5069489;28;20436;-59
2024/01/05 03:57:26;;;;;;;2.37;1.53;;;7.10;71.20;;;8.84;54.66;96352.63;5070523;28;20102;-60
2024/01/05 03:59:54;;;;;;;2.80;1.40;;;7.10;71.10;;;8.87;54.91;96348.78;5069505;28;20040;-59
2024/01/05 04:02:22;;;;;;;5.03;1.73;;;7.10;71.40;;;8.91;54.53;96344.75;5069961;28;20040;-59
2024/01/05 04:04:50;;;;;;;2.73;1.10;;;7.20;71.20;;;8.93;54.58;96347.25;5070508;28;20531;-59
2024/01/05 04:07:18;;;;;;;3.37;1.53;;;7.20;71.30;;;8.93;54.41;96339.28;5070196;28;22388;-59
2024/01/05 04:09:45;;;;;;;5.50;2.77;;;7.10;70.80;;;8.93;54.24;96336.63;5070235;28;20048;-59
2024/01/05 04:12:13;;;;;;;2.87;1.13;;;7.10;71.00;;;8.93;54.18;96326.00;5070007;28;20036;-59
2024/01/05 04:14:41;;;;;;;4.63;1.43;;;7.20;71.00;;;8.91;54.28;96317.41;5070172;28;20045;-59
2024/01/05 04:17:09;;;;;;;3.20;1.80;;;7.10;70.90;;;8.90;54.30;96311.28;5085787;28;20045;-59
2024/01/05 04:19:37;;;;;;;6.53;2.53;;;7.10;71.20;;;8.92;54.37;96303.13;5066434;28;20044;-59
2024/01/05 04:22:06;;;;;;;3.63;1.43;;;7.10;71.00;;;8.89;54.30;96301.66;5069582;28;20048;-60
2024/01/05 04:24:34;;;;;;;3.50;0.97;;;7.10;70.30;;;8.83;54.15;96305.88;5070030;28;20125;-59
2024/01/05 04:27:03;;;;;;;3.43;1.67;;;7.00;71.20;;;8.82;54.34;96296.28;5070053;28;20432;-59
2024/01/05 04:29:30;;;;;;;3.83;1.60;;;7.00;70.60;;;8.82;54.27;96293.63;5069651;28;20052;-59
2024/01/05 04:31:58;;;;;;;3.93;1.10;;;7.10;70.90;;;8.82;54.08;96290.13;5069935;28;20041;-59
2024/01/05 04:34:26;;;;;;;2.57;1.50;;;7.00;70.40;;;8.80;54.30;96292.13;5061444;28;20041;-59
2024/01/05 04:36:54;;;;;;;3.97;1.90;;;7.10;70.20;;;8.74;54.24;96288.38;5068148;28;20415;-59
2024/01/05 04:39:22;;;;;;;3.03;1.40;;;7.00;70.40;;;8.73;54.18;96291.25;5068247;28;20484;-60
2024/01/05 04:41:50;;;;;;;6.30;1.33;;;7.00;70.60;;;8.78;54.37;96292.34;5069833;28;20041;-59
2024/01/05 04:44:19;;;;;;;3.53;1.33;;;7.10;70.50;;;8.79;54.27;96293.16;5069127;28;20114;-59
2024/01/05 04:46:47;;;;;;;1.77;1.23;;;7.10;70.10;;;8.81;54.09;96285.84;5069265;28;20060;-61
2024/01/05 04:49:15;;;;;;;3.43;1.20;;;7.10;70.00;;;8.80;54.00;96286.81;5073599;28;20055;-61
2024/01/05 04:51:43;;;;;;;2.17;1.57;;;7.20;70.00;;;8.76;54.06;96281.09;5073218;28;20067;-61
2024/01/05 04:54:11;;;;;;;2.40;1.17;;;7.10;69.70;;;8.81;54.05;96280.53;5072515;28;20404;-61
2024/01/05 04:56:39;;;;;;;3.00;1.60;;;7.20;69.50;;;8.85;53.96;96281.81;5073808;28;20512;-61
2024/01/05 04:59:08;;;;;;;6.17;1.30;;;7.20;69.50;;;8.85;54.05;96284.47;5072512;28;20040;-61
2024/01/05 05:01:36;;;;;;;3.50;1.00;;;7.20;69.50;;;8.88;53.92;96284.09;5072956;28;20499;-60
2024/01/05 05:04:04;;;;;;;2.30;1.57;;;7.20;69.50;;;8.86;54.01;96286.94;5073286;28;20041;-61
2024/01/05 05:06:32;;;;;;;5.37;1.97;;;7.20;68.90;;;8.88;53.90;96284.09;5074008;28;20519;-61
2024/01/05 05:09:00;;;;;;;2.20;1.33;;;7.20;69.00;;;8.90;53.82;96284.75;5073374;28;20056;-61
2024/01/05 05:11:28;;;;;;;2.20;1.20;;;7.20;69.40;;;8.95;53.78;96289.47;5072920;28;20040;-61
2024/01/05 05:13:56;;;;;;;2.77;1.70;;;7.20;69.20;;;8.96;53.75;96296.47;5072939;28;20041;-61
2024/01/05 05:16:24;;;;;;;3.53;1.27;;;7.20;68.00;;;8.94;53.72;96293.16;5073174;28;20067;-61
2024/01/05 05:18:52;;;;;;;3.87;1.73;;;7.20;68.90;;;8.95;53.45;96290.31;5073335;28;20496;-61
2024/01/05 05:21:20;;;;;;;3.07;1.33;;;7.30;68.60;;;8.97;53.36;96295.44;5072705;28;20416;-61
2024/01/05 05:23:48;;;;;;;3.47;1.40;;;7.30;69.00;;;8.98;53.46;96292.59;5070925;28;20055;-61
2024/01/05 05:26:16;;;;;;;2.80;1.30;;;7.30;69.00;;;9.01;53.51;96284.25;5073091;28;20045;-61
2024/01/05 05:28:43;;;;;;;3.77;1.70;;;7.30;69.00;;;9.03;53.45;96281.41;5073000;28;20045;-61
2024/01/05 05:31:12;;;;;;;3.73;1.20;;;7.30;69.10;;;9.01;53.33;96276.28;5073048;28;20093;-59
2024/01/05 05:33:40;;;;;;;4.37;0.90;;;7.30;68.70;;;9.02;53.40;96279.78;5072748;28;20040;-59
2024/01/05 05:36:08;;;;;;;2.57;1.50;;;7.30;69.30;;;9.02;53.37;96277.94;5071296;28;20488;-59
2024/01/05 05:38:36;;;;;;;4.87;1.47;;;7.30;69.30;;;9.02;53.09;96285.91;5072796;28;20036;-59
2024/01/05 05:41:04;;;;;;;4.47;1.57;;;7.30;68.90;;;8.95;53.29;96286.84;5072327;28;20352;-59
2024/01/05 05:43:31;;;;;;;5.37;1.70;;;7.20;68.80;;;8.98;53.42;96291.78;5072626;28;20052;-59
2024/01/05 05:46:00;;;;;;;2.63;1.30;;;7.20;68.70;;;8.97;53.50;96276.84;5072840;28;20040;-59
2024/01/05 05:48:27;;;;;;;3.00;1.67;;;7.20;68.90;;;8.99;53.45;96280.16;5071377;28;20060;-59
2024/01/05 05:50:55;;;;;;;2.73;1.23;;;7.30;68.60;;;9.00;53.32;96284.47;5072145;28;20052;-59
2024/01/05 05:53:23;;;;;;;6.70;1.80;;;7.30;69.10;;;9.04;53.42;96288.38;5072418;28;20045;-59
2024/01/05 05:55:52;;;;;;;4.27;1.73;;;7.30;68.80;;;9.02;53.15;96290.41;5072642;28;20484;-59
2024/01/05 05:58:20;;;;;;;3.27;1.20;;;7.30;68.80;;;9.01;53.15;96286.91;5071135;28;20040;-59
2024/01/05 06:00:49;;;;;;;4.90;2.23;;;7.30;68.70;;;9.02;53.21;96285.91;5072007;28;20059;-59
2024/01/05 06:03:17;;;;;;;6.13;2.00;;;7.30;69.00;;;9.03;53.00;96292.88;5072315;28;20044;-59
2024/01/05 06:05:45;;;;;;;4.03;1.40;;;7.30;69.20;;;9.01;53.13;96284.25;5072525;28;20055;-59
2024/01/05 06:08:13;;;;;;;4.53;1.67;;;7.20;69.10;;;9.00;53.21;96279.16;5071972;28;20048;-59
2024/01/05 06:10:41;;;;;;;2.97;1.53;;;7.20;69.20;;;9.00;53.28;96287.94;5072029;28;20044;-59
2024/01/05 06:13:09;;;;;;;2.83;1.50;;;7.20;68.90;;;9.00;53.23;96293.25;5070352;28;20048;-59
2024/01/05 06:15:36;;;;;;;4.63;1.80;;;7.20;68.80;;;9.01;53.36;96297.53;5063769;28;20041;-59
2024/01/05 06:18:04;;;;;;;3.27;1.90;;;7.20;68.90;;;9.03;53.01;96297.34;5072375;28;20041;-59
2024/01/05 06:20:32;;;;;;;6.63;2.57;;;7.20;69.00;;;9.01;53.24;96302.84;5070052;28;20037;-59
2024/01/05 06:23:00;;;;;;;2.70;1.20;;;7.20;69.40;;;9.02;53.25;96304.50;5071804;28;20048;-59
2024/01/05 06:25:28;;;;;;;6.07;1.40;;;7.20;69.30;;;9.03;53.22;96305.31;5071253;28;20049;-59
2024/01/05 06:27:56;;;;;;;5.17;1.70;;;7.20;69.10;;;8.99;53.21;96304.03;5072056;28;20562;-59
2024/01/05 06:30:24;;;;;;;2.70;1.60;;;7.20;68.80;;;8.96;53.18;96304.41;5071779;28;20412;-59
2024/01/05 06:32:52;;;;;;;1.73;1.10;;;7.20;68.90;;;8.95;52.89;96302.75;5071407;28;20036;-59
2024/01/05 06:35:20;;;;;;;3.67;1.33;;;7.20;68.60;;;8.97;53.18;96301.56;5070682;28;20496;-60
2024/01/05 06:37:48;;;;;;;3.13;1.30;;;7.20;68.30;;;8.97;52.88;96301.56;5071612;28;20036;-59
2024/01/05 06:40:16;;;;;;;4.33;1.80;;;7.20;68.50;;;8.98;53.34;96295.25;5071171;28;20036;-59
2024/01/05 06:42:45;;;;;;;4.17;1.73;;;7.30;68.20;;;8.98;53.03;96303.22;5071399;28;20044;-59
2024/01/05 06:45:13;;;;;;;3.27;1.47;;;7.30;68.10;;;9.03;52.75;96300.84;5071426;28;20412;-59
2024/01/05 06:47:41;;;;;;;2.03;1.33;;;7.40;67.70;;;9.07;52.96;96294.16;5071699;28;20036;-59
2024/01/05 06:50:09;;;;;;;2.73;1.30;;;7.40;67.60;;;9.11;53.16;96297.28;5071239;28;20033;-60
2024/01/05 06:52:37;;;;;;;2.53;1.17;;;7.50;67.60;;;9.15;52.72;96287.06;5069928;28;20037;-59
2024/01/05 06:55:05;;;;;;;4.07;1.87;;;7.50;67.80;;;9.16;52.91;96284.25;5071460;28;20048;-59
2024/01/05 06:57:35;;;;;;;2.87;1.30;;;7.50;67.80;;;9.18;52.63;96286.72;5069965;28;20043;-59
2024/01/05 07:00:10;;;;;;;9.47;2.13;;;7.50;67.30;;;9.18;52.74;96297.34;5071148;28;20040;-59
2024/01/05 07:02:38;;;;;;;4.20;1.40;;;7.40;67.80;;;9.17;52.50;96307.16;5070926;28;20051;-59
2024/01/05 07:05:07;;;;;;;4.33;1.50;;;7.40;68.20;;;9.14;52.52;96312.00;5071280;28;20282;-59
2024/01/05 07:07:35;;;;;;;2.73;1.30;;;7.30;68.60;;;9.09;52.74;96311.72;5069675;28;20478;-59
2024/01/05 07:10:04;;;;;;;3.37;1.10;;;7.20;68.80;;;9.08;52.83;96308.25;5070665;28;20041;-60
2024/01/05 07:12:31;;;;;;;3.43;1.50;;;7.20;68.70;;;9.05;53.03;96316.56;5070930;28;20049;-60
2024/01/05 07:15:00;;;;;;;3.60;1.50;;;7.10;69.10;;;9.03;52.84;96316.78;5070983;28;20040;-59
2024/01/05 07:17:28;;;;;;;3.93;1.40;;;7.10;69.20;;;9.01;52.77;96317.94;5070901;28;20044;-59
2024/01/05 07:19:56;;;;;;;4.93;1.50;;;7.20;69.30;;;8.96;52.96;96318.50;5067882;28;20496;-59
2024/01/05 07:22:25;;;;;;;3.50;1.87;;;7.10;69.40;;;8.94;52.95;96314.41;5069741;28;20059;-59
2024/01/05 07:24:52;;;;;;;2.77;1.60;;;7.10;69.80;;;8.92;52.98;96305.75;5071145;28;20045;-60
2024/01/05 07:27:20;;;;;;;5.13;1.90;;;7.00;69.90;;;8.91;53.10;96309.44;5070616;28;20044;-60
2024/01/05 07:29:48;;;;;;;2.67;1.27;;;7.00;70.00;;;8.86;53.23;96308.16;5070573;28;20076;-59
2024/01/05 07:32:16;;;;;;;3.37;1.60;;;7.00;70.30;;;8.86;53.33;96305.50;5070894;28;20059;-59
2024/01/05 07:34:44;;;;;;;2.57;1.80;;;6.90;70.20;;;8.84;53.09;96309.34;5062237;28;20048;-59
2024/01/05 07:37:12;;;;;;;4.87;1.87;;;6.90;70.40;;;8.81;53.09;96309.72;5069267;28;20047;-59
2024/01/05 07:39:40;;;;;;;4.20;1.83;;;6.90;70.70;;;8.80;53.39;96313.34;5068774;28;20036;-59
2024/01/05 07:42:08;;;;;;;2.83;1.77;;;6.90;70.60;;;8.77;53.33;96303.94;5070850;28;20056;-59
2024/01/05 07:44:36;;;;;;;5.83;1.57;;;6.90;70.20;;;8.74;53.22;96314.09;5070179;28;20047;-59
2024/01/05 07:47:06;;;;;;;6.03;2.27;;;6.90;70.80;;;8.73;53.45;96309.81;5070826;28;20119;-58
2024/01/05 07:49:34;;;;;;;4.87;1.50;;;6.90;70.40;;;8.72;53.49;96313.47;5069948;28;20522;-59
2024/01/05 07:52:02;;;;;;;3.60;1.63;;;6.90;70.40;;;8.71;53.55;96309.97;5069906;28;20040;-58
2024/01/05 07:54:30;;;;;;;3.00;1.67;;;6.90;70.30;;;8.74;53.48;96316.75;5068782;28;20037;-59
2024/01/05 07:56:58;;;;;;;6.37;2.67;;;7.00;70.00;;;8.67;53.74;96311.34;5068289;28;20527;-59
2024/01/05 07:59:25;;;;;;;4.10;1.60;;;7.00;70.00;;;8.67;53.53;96308.72;5069678;28;20047;-59
2024/01/05 08:01:53;;;;;;;6.53;2.80;;;6.90;70.20;;;8.67;53.80;96309.53;5070191;28;20041;-59
2024/01/05 08:04:21;;;;;;;5.17;2.23;;;6.90;70.30;;;8.62;53.67;96305.75;5070013;28;20036;-59
2024/01/05 08:06:50;;;;;;;4.00;2.50;;;6.90;71.60;;;8.65;53.97;96303.56;5069053;28;20047;-59
2024/01/05 08:09:19;;;;;;;3.30;1.67;;;6.90;70.90;;;8.63;54.12;96299.47;5069792;28;20044;-59
2024/01/05 08:11:47;;;;;;;5.00;1.30;;;6.80;71.20;;;8.67;53.83;96303.41;5061680;28;20512;-60
2024/01/05 08:14:15;;;;;;;4.30;1.73;;;6.90;71.40;;;8.71;54.10;96296.72;5069866;28;20415;-59
2024/01/05 08:16:43;;;;;;;4.17;1.83;;;7.00;70.80;;;8.71;54.15;96285.28;5069746;28;20044;-59
2024/01/05 08:19:11;;;;;;;6.97;2.03;;;7.00;70.90;;;8.75;54.18;96289.22;5062696;28;20048;-59
2024/01/05 08:21:38;;;;;;;6.03;1.63;;;7.00;71.00;;;8.78;54.14;96302.94;5062750;28;20045;-59
2024/01/05 08:24:06;;;;;;;2.43;1.40;;;7.10;71.00;;;8.81;53.80;96305.22;5067008;28;20051;-59
2024/01/05 08:26:34;;;;;;;6.20;1.77;;;7.10;71.00;;;8.83;54.11;96311.16;5064786;28;20048;-59
2024/01/05 08:29:02;;;;;;;4.97;1.60;;;7.10;71.50;;;8.87;54.27;96317.75;5061845;28;20044;-60
2024/01/05 08:31:30;;;;;;;1.70;1.30;;;7.20;71.20;;;8.91;54.26;96317.41;5062782;28;20120;-59
2024/01/05 08:33:58;;;;;;;3.50;1.40;;;7.30;70.90;;;8.96;54.15;96312.38;5069522;28;20028;-60
2024/01/05 08:36:27;;;;;;;2.27;1.60;;;7.30;70.80;;;9.03;54.02;96303.50;5069584;28;20041;-59
2024/01/05 08:38:55;;;;;;;2.63;1.47;;;7.40;70.40;;;9.10;54.32;96311.53;5068582;28;20051;-59
2024/01/05 08:41:23;;;;;;;2.00;1.30;;;7.50;71.30;;;9.16;54.12;96302.81;5069634;28;20040;-60
2024/01/05 08:43:51;;;;;;;3.27;1.50;;;7.60;69.60;;;9.22;53.89;96306.56;5061631;28;20045;-59
2024/01/05 08:46:19;;;;;;;4.90;1.50;;;7.60;70.10;;;9.22;53.64;96302.09;5069749;28;20048;-59
2024/01/05 08:48:48;;;;;;;2.40;1.53;;;7.70;70.60;;;9.27;53.60;96299.72;5069597;28;20048;-60
2024/01/05 08:51:16;;;;;;;4.50;1.20;;;7.70;69.50;;;9.31;53.63;96296.69;5068078;28;20063;-59
2024/01/05 08:53:44;;;;;;;3.30;1.60;;;7.70;69.10;;;9.32;53.72;96303.63;5069451;28;20075;-59
2024/01/05 08:56:13;;;;;;;2.60;1.57;;;7.70;69.10;;;9.35;53.66;96300.63;5069736;28;20514;-59
2024/01/05 08:58:40;;;;;;;5.00;1.40;;;7.80;69.30;;;9.38;53.64;96294.91;5067591;28;20049;-60
2024/01/05 09:01:08;;;;;;;5.00;2.80;;;7.70;69.20;;;9.38;53.81;96297.56;5069256;28;20037;-60
2024/01/05 09:03:36;;;;;;;3.33;1.47;;;7.70;69.80;;;9.38;53.79;96301.06;5069412;28;20464;-60
2024/01/05 09:06:05;;;;;;;4.73;1.63;;;7.70;69.90;;;9.39;53.64;96300.03;5069573;28;20554;-60
2024/01/05 09:08:33;;;;;;;3.17;1.70;;;7.70;69.80;;;9.42;53.64;96297.03;5069534;28;20041;-60
2024/01/05 09:11:01;;;;;;;3.43;2.23;;;7.80;70.00;;;9.45;53.92;96301.94;5069256;28;20044;-60
2024/01/05 09:13:30;;;;;;;4.10;2.47;;;7.80;70.00;;;9.52;54.14;96298.53;5069708;28;20412;-60
2024/01/05 09:15:58;;;;;;;5.57;2.03;;;7.90;70.10;;;9.57;53.85;96307.59;5069576;28;20036;-61
2024/01/05 09:18:27;;;;;;;2.93;1.30;;;8.00;69.80;;;9.60;53.65;96307.25;5069639;28;20515;-61
2024/01/05 09:20:56;;;;;;;3.03;1.40;;;8.00;69.80;;;9.65;53.94;96306.66;5067337;28;20037;-60
2024/01/05 09:23:24;;;;;;;5.10;2.10;;;8.10;69.80;;;9.71;53.71;96311.22;5068174;28;20135;-60
2024/01/05 09:25:52;;;;;;;6.17;4.43;;;8.10;69.90;;;9.76;53.90;96313.34;5069150;28;20044;-60
2024/01/05 09:28:20;;;;;;;3.67;2.90;;;8.20;69.80;;;9.81;53.92;96325.03;5067701;28;20083;-60
2024/01/05 09:30:48;;;;;;;2.60;1.60;;;8.30;69.80;;;9.84;53.96;96326.50;5069020;28;20101;-60
2024/01/05 09:33:21;;;;;;;6.93;2.70;;;8.30;69.60;;;9.90;53.81;96323.06;5071244;28;20423;-60
2024/01/05 09:35:49;;;;;;;2.20;1.50;;;8.30;69.40;;;9.95;53.96;96326.00;5072792;28;20045;-61
2024/01/05 09:38:17;;;;;;;2.73;1.67;;;8.40;69.30;;;10.00;53.82;96326.25;5072867;28;20033;-60
2024/01/05 09:40:46;;;;;;;4.43;2.10;;;8.50;69.20;;;10.03;53.39;96322.41;5071201;28;20044;-60
2024/01/05 09:43:16;;;;;;;3.27;1.87;;;8.40;68.80;;;10.05;53.21;96325.69;5072817;28;20408;-61
2024/01/05 09:45:48;;;;;;;7.07;3.03;;;8.40;68.90;;;10.08;53.44;96327.13;5054762;28;20405;-62
2024/01/05 09:48:19;;;;;;;6.87;3.23;;;8.40;68.90;;;10.12;53.72;96325.72;5071704;28;20037;-61
2024/01/05 09:50:53;;;;;;;3.90;2.20;;;8.50;69.50;;;10.17;53.37;96339.28;5071205;28;20044;-61
2024/01/05 09:53:21;;;;;;;3.17;1.55;;;8.50;69.30;;;10.20;53.58;96339.75;5070668;28;20040;-61
2024/01/05 09:55:50;;;;;;;6.17;4.40;;;8.50;69.00;;;10.24;53.41;96334.88;5071175;28;20047;-61
2024/01/05 09:58:18;;;;;;;8.37;4.63;;;8.60;69.00;;;10.29;53.63;96332.44;5072522;28;20036;-61
2024/01/05 10:00:50;;;;;;;4.57;2.23;;;8.70;69.20;;;10.39;53.34;96337.47;5071969;28;20048;-61
2024/01/05 10:03:24;;;;;;;13.17;7.43;;;8.80;69.10;;;10.45;53.63;96339.38;5072372;28;20033;-61
2024/01/05 10:05:56;;;;;;;;;;;8.90;69.10;;;10.48;53.23;96336.31;5070814;28;20052;-61
2024/01/05 10:08:24;;;;;;;8.00;4.40;;;8.90;68.80;;;10.54;53.54;96334.72;5072321;28;19921;-60
2024/01/05 10:10:56;;;;;;;5.33;2.30;;;8.90;68.70;;;10.53;53.09;96336.56;5071832;28;20056;-60
2024/01/05 10:13:25;;;;;;;6.27;2.60;;;8.90;68.90;;;10.53;52.79;96330.44;5070994;28;20048;-60
2024/01/05 10:15:56;;;;;;;5.27;2.40;;;8.90;68.60;;;10.54;52.62;96324.91;5071923;28;20045;-60
2024/01/05 10:18:28;;;;;;;3.07;1.77;;;8.90;68.80;;;10.53;53.15;96323.28;5071956;28;20044;-60
2024/01/05 10:21:07;;;;;;;2.93;2.03;;;8.90;68.30;;;10.53;53.05;96335.75;5068952;28;20388;-60
2024/01/05 10:23:42;;;;;;;4.07;2.00;;;8.90;68.60;;;10.55;53.45;96333.72;5069926;28;20037;-60
2024/01/05 10:26:18;;;;;;;4.83;2.00;;;9.00;68.40;;;10.60;52.93;96329.47;5072176;28;20096;-60
2024/01/05 10:28:48;;;;;;;4.27;1.70;;;9.10;69.30;;;10.66;53.18;96332.34;5071760;28;20496;-60
2024/01/05 10:31:17;;;;;;;3.87;2.30;;;9.10;68.20;;;10.71;52.95;96335.28;5071283;28;20044;-60
2024/01/05 10:33:53;;;;;;;7.33;3.07;;;9.10;68.30;;;10.73;53.12;96330.56;5071565;28;20052;-60